createdAt,value
2017-08-05T00:00:35.522Z,18.22
2017-08-05T00:01:35.500Z,18.2
2017-08-05T00:02:35.483Z,18.23
2017-08-05T00:03:35.462Z,18.2
2017-08-05T00:04:35.441Z,18.19
2017-08-05T00:05:35.127Z,18.19
2017-08-05T00:06:35.399Z,18.08
2017-08-05T00:07:35.078Z,18.19
2017-08-05T00:08:35.360Z,18.1
2017-08-05T00:09:35.042Z,18.07
2017-08-05T00:10:35.319Z,18
2017-08-05T00:11:34.999Z,17.95
2017-08-05T00:12:35.442Z,17.97
2017-08-05T00:13:35.257Z,17.94
2017-08-05T00:14:35.238Z,17.95
2017-08-05T00:15:35.217Z,17.83
2017-08-05T00:16:35.194Z,17.89
2017-08-05T00:17:35.174Z,17.9
2017-08-05T00:18:35.159Z,17.85
2017-08-05T00:19:35.133Z,17.86
2017-08-05T00:20:35.116Z,17.95
2017-08-05T00:21:35.094Z,17.89
2017-08-05T00:22:35.078Z,17.89
2017-08-05T00:23:35.063Z,17.98
2017-08-05T00:24:35.032Z,17.97
2017-08-05T00:25:35.014Z,18.01
2017-08-05T00:26:34.698Z,18.01
2017-08-05T00:27:34.677Z,17.97
2017-08-05T00:28:34.956Z,17.94
2017-08-05T00:29:34.930Z,17.95
2017-08-05T00:30:34.913Z,18.11
2017-08-05T00:31:34.599Z,18.07
2017-08-05T00:32:34.869Z,18.05
2017-08-05T00:33:34.849Z,18.08
2017-08-05T00:34:34.831Z,18.1
2017-08-05T00:35:34.816Z,18.11
2017-08-05T00:36:34.793Z,18.07
2017-08-05T00:37:34.767Z,18.07
2017-08-05T00:38:34.749Z,18.08
2017-08-05T00:39:34.733Z,18.11
2017-08-05T00:40:34.711Z,18.11
2017-08-05T00:41:34.686Z,17.98
2017-08-05T00:42:34.669Z,17.97
2017-08-05T00:43:34.645Z,18.01
2017-08-05T00:44:34.632Z,17.97
2017-08-05T00:45:34.607Z,17.97
2017-08-05T00:46:34.582Z,18.04
2017-08-05T00:47:34.267Z,17.92
2017-08-05T00:48:34.547Z,17.95
2017-08-05T00:49:34.524Z,17.8
2017-08-05T00:50:34.210Z,17.89
2017-08-05T00:51:34.486Z,17.79
2017-08-05T00:52:34.462Z,17.78
2017-08-05T00:53:34.442Z,17.8
2017-08-05T00:54:34.422Z,17.78
2017-08-05T00:55:34.402Z,17.71
2017-08-05T00:56:34.386Z,17.71
2017-08-05T00:57:34.366Z,17.74
2017-08-05T00:58:34.398Z,17.74
2017-08-05T00:59:34.323Z,17.64
2017-08-05T01:00:34.301Z,17.63
2017-08-05T01:01:34.287Z,17.64
2017-08-05T01:02:33.961Z,17.59
2017-08-05T01:03:33.938Z,17.64
2017-08-05T01:04:34.219Z,17.57
2017-08-05T01:05:34.198Z,17.56
2017-08-05T01:06:34.176Z,17.54
2017-08-05T01:07:34.158Z,17.54
2017-08-05T01:08:34.142Z,17.57
2017-08-05T01:09:34.111Z,17.54
2017-08-05T01:10:34.094Z,17.6
2017-08-05T01:11:34.071Z,17.54
2017-08-05T01:12:34.052Z,17.64
2017-08-05T01:13:34.030Z,17.54
2017-08-05T01:14:34.014Z,17.54
2017-08-05T01:15:33.990Z,17.49
2017-08-05T01:16:33.968Z,17.52
2017-08-05T01:17:33.950Z,17.54
2017-08-05T01:18:33.630Z,17.59
2017-08-05T01:19:33.909Z,17.45
2017-08-05T01:20:33.885Z,17.48
2017-08-05T01:21:33.865Z,17.48
2017-08-05T01:22:33.851Z,17.44
2017-08-05T01:23:33.824Z,17.45
2017-08-05T01:24:33.503Z,17.38
2017-08-05T01:25:33.794Z,17.36
2017-08-05T01:26:33.767Z,17.39
2017-08-05T01:27:33.739Z,17.31
2017-08-05T01:28:33.717Z,17.33
2017-08-05T01:29:33.698Z,17.29
2017-08-05T01:30:33.682Z,17.29
2017-08-05T01:31:33.661Z,17.3
2017-08-05T01:32:33.651Z,17.19
2017-08-05T01:33:33.615Z,17.16
2017-08-05T01:34:33.300Z,17.16
2017-08-05T01:35:33.275Z,17.19
2017-08-05T01:36:33.553Z,17.09
2017-08-05T01:37:33.233Z,17.02
2017-08-05T01:38:33.514Z,17.08
2017-08-05T01:39:33.493Z,17.08
2017-08-05T01:40:33.173Z,17.09
2017-08-05T01:41:33.150Z,17.04
2017-08-05T01:42:33.423Z,17.06
2017-08-05T01:43:33.414Z,17.05
2017-08-05T01:44:33.091Z,17.11
2017-08-05T01:45:33.066Z,17.15
2017-08-05T01:46:33.343Z,17.11
2017-08-05T01:47:33.323Z,17.19
2017-08-05T01:48:33.310Z,17.22
2017-08-05T01:49:33.276Z,17.2
2017-08-05T01:50:32.961Z,17.26
2017-08-05T01:51:33.238Z,17.26
2017-08-05T01:52:33.218Z,17.3
2017-08-05T01:53:33.195Z,17.33
2017-08-05T01:54:33.200Z,17.27
2017-08-05T01:55:33.162Z,17.36
2017-08-05T01:56:33.133Z,17.33
2017-08-05T01:57:33.111Z,17.44
2017-08-05T01:58:32.797Z,17.41
2017-08-05T01:59:33.075Z,17.45
2017-08-05T02:00:33.054Z,17.44
2017-08-05T02:01:33.029Z,17.48
2017-08-05T02:02:33.012Z,17.45
2017-08-05T02:03:32.985Z,17.48
2017-08-05T02:04:32.968Z,17.52
2017-08-05T02:05:32.946Z,17.56
2017-08-05T02:06:32.929Z,17.49
2017-08-05T02:07:32.908Z,17.52
2017-08-05T02:08:32.585Z,17.63
2017-08-05T02:09:32.875Z,17.6
2017-08-05T02:10:32.853Z,17.65
2017-08-05T02:11:32.822Z,17.59
2017-08-05T02:12:32.802Z,17.67
2017-08-05T02:13:32.782Z,17.68
2017-08-05T02:14:32.778Z,17.68
2017-08-05T02:15:32.739Z,17.68
2017-08-05T02:16:32.721Z,17.7
2017-08-05T02:17:32.701Z,17.68
2017-08-05T02:18:32.675Z,17.72
2017-08-05T02:19:32.658Z,17.71
2017-08-05T02:20:32.637Z,17.65
2017-08-05T02:21:32.619Z,17.72
2017-08-05T02:22:32.594Z,17.76
2017-08-05T02:23:32.577Z,17.74
2017-08-05T02:24:32.553Z,17.78
2017-08-05T02:25:32.535Z,17.76
2017-08-05T02:26:31.924Z,17.76
2017-08-05T02:27:31.901Z,17.78
2017-08-05T02:28:32.476Z,17.7
2017-08-05T02:29:32.455Z,17.8
2017-08-05T02:30:32.143Z,17.72
2017-08-05T02:31:31.852Z,17.74
2017-08-05T02:32:32.392Z,17.78
2017-08-05T02:33:32.079Z,17.76
2017-08-05T02:34:32.358Z,17.71
2017-08-05T02:35:32.329Z,17.76
2017-08-05T02:36:32.308Z,17.68
2017-08-05T02:37:32.290Z,17.65
2017-08-05T02:38:32.278Z,17.67
2017-08-05T02:39:31.956Z,17.72
2017-08-05T02:40:32.233Z,17.71
2017-08-05T02:41:32.208Z,17.63
2017-08-05T02:42:32.199Z,17.68
2017-08-05T02:43:32.168Z,17.64
2017-08-05T02:44:32.150Z,17.7
2017-08-05T02:45:31.839Z,17.67
2017-08-05T02:46:32.107Z,17.59
2017-08-05T02:47:32.082Z,17.68
2017-08-05T02:48:32.067Z,17.72
2017-08-05T02:49:32.047Z,17.71
2017-08-05T02:50:31.731Z,17.71
2017-08-05T02:51:32.012Z,17.74
2017-08-05T02:52:31.708Z,17.76
2017-08-05T02:53:31.963Z,17.76
2017-08-05T02:54:31.944Z,17.82
2017-08-05T02:55:31.923Z,17.78
2017-08-05T02:56:31.897Z,17.8
2017-08-05T02:57:31.883Z,17.74
2017-08-05T02:58:31.855Z,17.74
2017-08-05T02:59:31.842Z,17.76
2017-08-05T03:00:31.819Z,17.83
2017-08-05T03:01:31.796Z,17.71
2017-08-05T03:02:31.784Z,17.71
2017-08-05T03:03:31.761Z,17.65
2017-08-05T03:04:31.446Z,17.56
2017-08-05T03:05:31.715Z,17.54
2017-08-05T03:06:31.694Z,17.52
2017-08-05T03:07:31.674Z,17.63
2017-08-05T03:08:31.658Z,17.45
2017-08-05T03:09:31.633Z,17.41
2017-08-05T03:10:31.617Z,17.41
2017-08-05T03:11:31.596Z,17.38
2017-08-05T03:12:31.568Z,17.33
2017-08-05T03:13:31.558Z,17.19
2017-08-05T03:14:31.531Z,17.16
2017-08-05T03:15:31.507Z,17.08
2017-08-05T03:16:31.485Z,17.06
2017-08-05T03:17:31.464Z,16.86
2017-08-05T03:18:31.438Z,16.9
2017-08-05T03:19:31.420Z,16.81
2017-08-05T03:20:31.403Z,16.69
2017-08-05T03:21:31.375Z,16.66
2017-08-05T03:22:31.359Z,16.61
2017-08-05T03:23:31.349Z,16.57
2017-08-05T03:24:31.317Z,16.51
2017-08-05T03:25:31.289Z,16.5
2017-08-05T03:26:30.980Z,16.42
2017-08-05T03:27:31.259Z,16.36
2017-08-05T03:28:31.231Z,16.28
2017-08-05T03:29:31.211Z,16.35
2017-08-05T03:30:31.194Z,16.33
2017-08-05T03:31:31.165Z,16.17
2017-08-05T03:32:31.148Z,16.21
2017-08-05T03:33:31.129Z,16.09
2017-08-05T03:34:31.102Z,16.15
2017-08-05T03:35:31.080Z,16.1
2017-08-05T03:36:31.056Z,16.09
2017-08-05T03:37:31.036Z,16.04
2017-08-05T03:38:31.022Z,16
2017-08-05T03:39:30.990Z,15.92
2017-08-05T03:40:30.970Z,15.9
2017-08-05T03:41:30.953Z,15.9
2017-08-05T03:42:30.634Z,15.79
2017-08-05T03:43:30.611Z,15.8
2017-08-05T03:44:30.906Z,15.76
2017-08-05T03:45:30.861Z,15.7
2017-08-05T03:46:30.839Z,15.64
2017-08-05T03:47:30.820Z,15.67
2017-08-05T03:48:30.792Z,15.58
2017-08-05T03:49:30.772Z,15.54
2017-08-05T03:50:30.756Z,15.57
2017-08-05T03:51:30.732Z,15.49
2017-08-05T03:52:30.707Z,15.43
2017-08-05T03:53:30.685Z,15.43
2017-08-05T03:54:30.667Z,15.42
2017-08-05T03:55:30.638Z,15.44
2017-08-05T03:56:30.620Z,15.49
2017-08-05T03:57:30.601Z,15.44
2017-08-05T03:58:30.577Z,15.44
2017-08-05T03:59:30.551Z,15.47
2017-08-05T04:00:30.530Z,15.44
2017-08-05T04:01:30.508Z,15.51
2017-08-05T04:02:30.483Z,15.49
2017-08-05T04:03:30.469Z,15.49
2017-08-05T04:04:30.456Z,15.49
2017-08-05T04:05:30.417Z,15.47
2017-08-05T04:06:30.402Z,15.51
2017-08-05T04:07:30.380Z,15.47
2017-08-05T04:08:30.347Z,15.46
2017-08-05T04:09:30.329Z,15.44
2017-08-05T04:10:30.309Z,15.47
2017-08-05T04:11:30.280Z,15.51
2017-08-05T04:12:30.258Z,15.47
2017-08-05T04:13:30.244Z,15.51
2017-08-05T04:14:30.225Z,15.52
2017-08-05T04:15:30.198Z,15.52
2017-08-05T04:16:30.184Z,15.58
2017-08-05T04:17:30.155Z,15.57
2017-08-05T04:18:30.129Z,15.55
2017-08-05T04:19:30.106Z,15.55
2017-08-05T04:20:30.088Z,15.64
2017-08-05T04:21:30.063Z,15.61
2017-08-05T04:22:30.041Z,15.65
2017-08-05T04:23:30.019Z,15.55
2017-08-05T04:24:29.998Z,15.55
2017-08-05T04:25:29.678Z,15.55
2017-08-05T04:26:29.950Z,15.57
2017-08-05T04:27:29.632Z,15.7
2017-08-05T04:28:29.908Z,15.67
2017-08-05T04:29:29.587Z,15.65
2017-08-05T04:30:29.856Z,15.59
2017-08-05T04:31:29.837Z,15.75
2017-08-05T04:32:29.813Z,15.7
2017-08-05T04:33:29.796Z,15.65
2017-08-05T04:34:29.771Z,15.59
2017-08-05T04:35:29.753Z,15.7
2017-08-05T04:36:29.732Z,15.7
2017-08-05T04:37:29.705Z,15.7
2017-08-05T04:38:29.685Z,15.64
2017-08-05T04:39:29.668Z,15.72
2017-08-05T04:40:29.642Z,15.7
2017-08-05T04:41:29.624Z,15.7
2017-08-05T04:42:29.599Z,15.75
2017-08-05T04:43:29.578Z,15.79
2017-08-05T04:44:29.555Z,15.72
2017-08-05T04:45:29.234Z,15.83
2017-08-05T04:46:29.505Z,15.88
2017-08-05T04:47:29.486Z,15.8
2017-08-05T04:48:29.462Z,15.8
2017-08-05T04:49:29.144Z,15.76
2017-08-05T04:50:29.420Z,15.8
2017-08-05T04:51:29.399Z,15.77
2017-08-05T04:52:29.380Z,15.84
2017-08-05T04:53:29.354Z,15.83
2017-08-05T04:54:29.333Z,15.76
2017-08-05T04:55:29.314Z,15.88
2017-08-05T04:56:29.292Z,15.82
2017-08-05T04:57:29.325Z,15.79
2017-08-05T04:58:29.255Z,15.77
2017-08-05T04:59:29.222Z,15.79
2017-08-05T05:00:29.203Z,15.82
2017-08-05T05:01:29.180Z,15.84
2017-08-05T05:02:29.172Z,15.88
2017-08-05T05:03:29.137Z,15.83
2017-08-05T05:04:29.120Z,15.9
2017-08-05T05:05:29.091Z,15.84
2017-08-05T05:06:29.065Z,15.84
2017-08-05T05:07:29.048Z,15.9
2017-08-05T05:08:29.027Z,15.88
2017-08-05T05:09:29.007Z,15.86
2017-08-05T05:10:28.984Z,15.86
2017-08-05T05:11:28.961Z,15.86
2017-08-05T05:12:28.941Z,15.84
2017-08-05T05:13:28.919Z,15.94
2017-08-05T05:14:28.897Z,15.9
2017-08-05T05:15:28.875Z,15.88
2017-08-05T05:16:28.852Z,15.94
2017-08-05T05:17:28.828Z,15.92
2017-08-05T05:18:28.810Z,15.94
2017-08-05T05:19:28.787Z,15.91
2017-08-05T05:20:28.766Z,15.92
2017-08-05T05:21:28.752Z,15.97
2017-08-05T05:22:28.721Z,16.01
2017-08-05T05:23:28.697Z,16.02
2017-08-05T05:24:28.680Z,16.01
2017-08-05T05:25:28.652Z,16
2017-08-05T05:26:28.638Z,16.02
2017-08-05T05:27:28.613Z,16.01
2017-08-05T05:28:28.591Z,15.97
2017-08-05T05:29:28.564Z,15.86
2017-08-05T05:30:28.550Z,15.88
2017-08-05T05:31:28.524Z,15.91
2017-08-05T05:32:28.503Z,15.88
2017-08-05T05:33:28.481Z,15.84
2017-08-05T05:34:28.461Z,15.88
2017-08-05T05:35:28.435Z,15.86
2017-08-05T05:36:28.420Z,15.83
2017-08-05T05:37:28.392Z,15.83
2017-08-05T05:38:28.382Z,15.9
2017-08-05T05:39:28.358Z,15.88
2017-08-05T05:40:28.329Z,15.98
2017-08-05T05:41:28.305Z,15.88
2017-08-05T05:42:28.287Z,16.02
2017-08-05T05:43:28.268Z,15.98
2017-08-05T05:44:28.242Z,15.94
2017-08-05T05:45:28.223Z,16.02
2017-08-05T05:46:28.202Z,16.02
2017-08-05T05:47:28.178Z,16.04
2017-08-05T05:48:28.157Z,16.05
2017-08-05T05:49:28.136Z,16
2017-08-05T05:50:28.108Z,16
2017-08-05T05:51:28.095Z,15.94
2017-08-05T05:52:28.076Z,15.88
2017-08-05T05:53:28.044Z,15.9
2017-08-05T05:54:28.040Z,15.92
2017-08-05T05:55:28.004Z,15.94
2017-08-05T05:56:27.982Z,15.94
2017-08-05T05:57:27.960Z,15.92
2017-08-05T05:58:27.942Z,15.88
2017-08-05T05:59:27.921Z,15.88
2017-08-05T06:00:27.907Z,15.84
2017-08-05T06:01:27.879Z,15.86
2017-08-05T06:02:27.858Z,15.76
2017-08-05T06:03:27.833Z,15.73
2017-08-05T06:04:27.810Z,15.84
2017-08-05T06:05:27.789Z,15.88
2017-08-05T06:06:27.468Z,15.83
2017-08-05T06:07:27.456Z,15.86
2017-08-05T06:08:27.426Z,15.82
2017-08-05T06:09:27.699Z,15.82
2017-08-05T06:10:27.405Z,15.75
2017-08-05T06:11:27.366Z,15.8
2017-08-05T06:12:27.344Z,15.83
2017-08-05T06:13:27.322Z,15.82
2017-08-05T06:14:27.296Z,15.83
2017-08-05T06:15:27.579Z,15.84
2017-08-05T06:16:27.549Z,15.84
2017-08-05T06:17:27.528Z,15.83
2017-08-05T06:18:27.505Z,15.91
2017-08-05T06:19:27.488Z,15.83
2017-08-05T06:20:27.463Z,15.91
2017-08-05T06:21:27.447Z,15.83
2017-08-05T06:22:27.422Z,15.86
2017-08-05T06:23:27.403Z,15.86
2017-08-05T06:24:27.379Z,15.88
2017-08-05T06:25:27.362Z,15.83
2017-08-05T06:26:27.337Z,15.83
2017-08-05T06:27:27.315Z,15.86
2017-08-05T06:28:27.293Z,15.86
2017-08-05T06:29:27.273Z,15.86
2017-08-05T06:30:27.251Z,15.88
2017-08-05T06:31:27.232Z,15.83
2017-08-05T06:32:27.208Z,15.86
2017-08-05T06:33:26.889Z,15.88
2017-08-05T06:34:27.170Z,15.86
2017-08-05T06:35:27.146Z,15.82
2017-08-05T06:36:27.125Z,15.86
2017-08-05T06:37:27.132Z,15.88
2017-08-05T06:38:27.078Z,15.91
2017-08-05T06:39:27.062Z,15.84
2017-08-05T06:40:27.038Z,15.86
2017-08-05T06:41:27.013Z,15.77
2017-08-05T06:42:26.998Z,15.79
2017-08-05T06:43:26.679Z,15.77
2017-08-05T06:44:26.951Z,15.77
2017-08-05T06:45:26.633Z,15.84
2017-08-05T06:46:26.903Z,15.82
2017-08-05T06:47:26.894Z,15.83
2017-08-05T06:48:26.567Z,15.79
2017-08-05T06:49:26.838Z,15.83
2017-08-05T06:50:26.824Z,15.83
2017-08-05T06:51:26.799Z,15.8
2017-08-05T06:52:26.781Z,15.86
2017-08-05T06:53:26.460Z,15.75
2017-08-05T06:54:26.736Z,15.82
2017-08-05T06:55:26.717Z,15.84
2017-08-05T06:56:26.693Z,15.82
2017-08-05T06:57:26.666Z,15.77
2017-08-05T06:58:26.071Z,15.77
2017-08-05T06:59:26.625Z,15.72
2017-08-05T07:00:26.011Z,15.76
2017-08-05T07:01:26.291Z,15.83
2017-08-05T07:02:26.559Z,15.77
2017-08-05T07:03:26.543Z,15.84
2017-08-05T07:04:26.515Z,15.79
2017-08-05T07:05:26.498Z,15.79
2017-08-05T07:06:26.478Z,15.82
2017-08-05T07:07:26.453Z,15.79
2017-08-05T07:08:26.436Z,15.76
2017-08-05T07:09:26.411Z,15.8
2017-08-05T07:10:26.390Z,15.77
2017-08-05T07:11:26.069Z,15.83
2017-08-05T07:12:26.347Z,15.72
2017-08-05T07:13:26.323Z,15.73
2017-08-05T07:14:26.304Z,15.77
2017-08-05T07:15:26.279Z,15.75
2017-08-05T07:16:26.311Z,15.77
2017-08-05T07:17:26.237Z,15.77
2017-08-05T07:18:26.216Z,15.76
2017-08-05T07:19:26.195Z,15.8
2017-08-05T07:20:26.174Z,15.82
2017-08-05T07:21:26.149Z,15.84
2017-08-05T07:22:26.131Z,15.76
2017-08-05T07:23:26.109Z,15.84
2017-08-05T07:24:26.089Z,15.88
2017-08-05T07:25:26.063Z,15.86
2017-08-05T07:26:25.448Z,15.86
2017-08-05T07:27:26.022Z,15.77
2017-08-05T07:28:25.996Z,15.8
2017-08-05T07:29:25.685Z,15.76
2017-08-05T07:30:25.660Z,15.82
2017-08-05T07:31:25.934Z,15.88
2017-08-05T07:32:25.908Z,15.83
2017-08-05T07:33:25.897Z,15.82
2017-08-05T07:34:25.867Z,15.84
2017-08-05T07:35:25.847Z,15.83
2017-08-05T07:36:25.832Z,15.79
2017-08-05T07:37:25.806Z,15.83
2017-08-05T07:38:25.780Z,15.82
2017-08-05T07:39:25.464Z,15.77
2017-08-05T07:40:25.448Z,15.84
2017-08-05T07:41:25.722Z,15.77
2017-08-05T07:42:25.697Z,15.86
2017-08-05T07:43:25.675Z,15.76
2017-08-05T07:44:25.654Z,15.8
2017-08-05T07:45:25.635Z,15.83
2017-08-05T07:46:25.616Z,15.7
2017-08-05T07:47:25.587Z,15.84
2017-08-05T07:48:25.573Z,15.7
2017-08-05T07:49:25.547Z,15.72
2017-08-05T07:50:25.229Z,15.75
2017-08-05T07:51:25.504Z,15.64
2017-08-05T07:52:25.480Z,15.65
2017-08-05T07:53:25.460Z,15.64
2017-08-05T07:54:25.444Z,15.68
2017-08-05T07:55:25.420Z,15.55
2017-08-05T07:56:25.393Z,15.57
2017-08-05T07:57:25.383Z,15.58
2017-08-05T07:58:25.053Z,15.61
2017-08-05T07:59:25.334Z,15.7
2017-08-05T08:00:25.309Z,15.75
2017-08-05T08:01:24.998Z,15.67
2017-08-05T08:02:25.265Z,15.68
2017-08-05T08:03:25.245Z,15.7
2017-08-05T08:04:25.223Z,15.73
2017-08-05T08:05:25.202Z,15.72
2017-08-05T08:06:25.177Z,15.76
2017-08-05T08:07:25.160Z,15.77
2017-08-05T08:08:24.841Z,15.77
2017-08-05T08:09:25.126Z,15.79
2017-08-05T08:10:25.121Z,15.8
2017-08-05T08:11:25.103Z,15.79
2017-08-05T08:12:24.763Z,15.77
2017-08-05T08:13:25.029Z,15.79
2017-08-05T08:14:25.011Z,15.82
2017-08-05T08:15:25.001Z,15.84
2017-08-05T08:16:24.980Z,15.9
2017-08-05T08:17:24.945Z,15.9
2017-08-05T08:18:24.928Z,15.94
2017-08-05T08:19:24.902Z,15.98
2017-08-05T08:20:24.880Z,15.98
2017-08-05T08:21:24.862Z,16.05
2017-08-05T08:22:24.841Z,16.09
2017-08-05T08:23:24.819Z,16.02
2017-08-05T08:24:24.800Z,16.08
2017-08-05T08:25:24.776Z,16.13
2017-08-05T08:26:24.758Z,16.21
2017-08-05T08:27:24.735Z,16.24
2017-08-05T08:28:24.714Z,16.29
2017-08-05T08:29:24.692Z,16.29
2017-08-05T08:30:24.676Z,16.29
2017-08-05T08:31:24.657Z,16.26
2017-08-05T08:32:24.632Z,16.35
2017-08-05T08:33:24.316Z,16.39
2017-08-05T08:34:24.589Z,16.36
2017-08-05T08:35:24.570Z,16.38
2017-08-05T08:36:24.550Z,16.39
2017-08-05T08:37:24.529Z,16.39
2017-08-05T08:38:24.510Z,16.41
2017-08-05T08:39:24.486Z,16.43
2017-08-05T08:40:24.464Z,16.5
2017-08-05T08:41:24.446Z,16.49
2017-08-05T08:42:24.461Z,16.5
2017-08-05T08:43:24.428Z,16.54
2017-08-05T08:44:24.390Z,16.64
2017-08-05T08:45:24.364Z,16.65
2017-08-05T08:46:24.351Z,16.71
2017-08-05T08:47:24.323Z,16.81
2017-08-05T08:48:24.303Z,16.84
2017-08-05T08:49:24.283Z,16.89
2017-08-05T08:50:24.263Z,17.01
2017-08-05T08:51:24.245Z,17.05
2017-08-05T08:52:24.223Z,16.94
2017-08-05T08:53:24.206Z,16.97
2017-08-05T08:54:24.192Z,17.02
2017-08-05T08:55:24.165Z,17.08
2017-08-05T08:56:24.147Z,17.08
2017-08-05T08:57:24.124Z,17.12
2017-08-05T08:58:24.108Z,17.2
2017-08-05T08:59:24.084Z,17.26
2017-08-05T09:00:24.065Z,17.33
2017-08-05T09:01:24.045Z,17.41
2017-08-05T09:02:24.030Z,17.48
2017-08-05T09:03:24.031Z,17.46
2017-08-05T09:04:23.984Z,17.44
2017-08-05T09:05:23.971Z,17.45
2017-08-05T09:06:23.956Z,17.45
2017-08-05T09:07:23.929Z,17.45
2017-08-05T09:08:23.920Z,17.42
2017-08-05T09:09:23.891Z,17.49
2017-08-05T09:10:23.881Z,17.45
2017-08-05T09:11:23.854Z,17.44
2017-08-05T09:12:23.842Z,17.46
2017-08-05T09:13:23.821Z,17.49
2017-08-05T09:14:23.798Z,17.44
2017-08-05T09:15:23.834Z,17.44
2017-08-05T09:16:23.758Z,17.57
2017-08-05T09:17:23.743Z,17.46
2017-08-05T09:18:23.730Z,17.67
2017-08-05T09:19:23.701Z,17.71
2017-08-05T09:20:23.686Z,17.79
2017-08-05T09:21:23.666Z,17.86
2017-08-05T09:22:23.652Z,17.95
2017-08-05T09:23:23.627Z,18
2017-08-05T09:24:23.616Z,18.08
2017-08-05T09:25:23.594Z,18.08
2017-08-05T09:26:23.579Z,18.18
2017-08-05T09:27:23.555Z,18.08
2017-08-05T09:28:23.538Z,18.22
2017-08-05T09:29:22.929Z,18.22
2017-08-05T09:30:23.505Z,18.04
2017-08-05T09:31:23.187Z,17.97
2017-08-05T09:32:23.484Z,18
2017-08-05T09:33:23.459Z,17.94
2017-08-05T09:34:23.425Z,17.92
2017-08-05T09:35:22.819Z,17.95
2017-08-05T09:36:23.392Z,17.97
2017-08-05T09:37:23.373Z,17.97
2017-08-05T09:38:23.367Z,17.94
2017-08-05T09:39:23.340Z,17.95
2017-08-05T09:40:23.321Z,17.97
2017-08-05T09:41:23.301Z,18.11
2017-08-05T09:42:23.287Z,18
2017-08-05T09:43:23.267Z,18.11
2017-08-05T09:44:23.247Z,18.04
2017-08-05T09:45:22.936Z,18.08
2017-08-05T09:46:23.217Z,18.05
2017-08-05T09:47:23.189Z,18.18
2017-08-05T09:48:22.876Z,18.19
2017-08-05T09:49:22.859Z,18.2
2017-08-05T09:50:22.844Z,18.08
2017-08-05T09:51:22.821Z,18.07
2017-08-05T09:52:23.101Z,17.95
2017-08-05T09:53:22.789Z,18.07
2017-08-05T09:54:22.783Z,17.89
2017-08-05T09:55:23.044Z,17.9
2017-08-05T09:56:23.028Z,17.87
2017-08-05T09:57:23.012Z,17.95
2017-08-05T09:58:22.992Z,17.89
2017-08-05T09:59:22.977Z,17.82
2017-08-05T10:00:22.953Z,17.9
2017-08-05T10:01:22.937Z,17.98
2017-08-05T10:02:22.918Z,17.92
2017-08-05T10:03:22.895Z,17.94
2017-08-05T10:04:22.887Z,17.89
2017-08-05T10:05:22.860Z,17.8
2017-08-05T10:06:22.562Z,17.82
2017-08-05T10:07:22.821Z,17.79
2017-08-05T10:08:22.803Z,17.78
2017-08-05T10:09:22.786Z,17.78
2017-08-05T10:10:22.764Z,17.8
2017-08-05T10:11:23.867Z,17.82
2017-08-05T10:12:22.730Z,17.78
2017-08-05T10:13:22.715Z,17.76
2017-08-05T10:14:22.694Z,17.72
2017-08-05T10:15:22.673Z,17.71
2017-08-05T10:16:22.658Z,17.74
2017-08-05T10:17:22.638Z,17.63
2017-08-05T10:18:22.612Z,17.52
2017-08-05T10:19:22.598Z,17.51
2017-08-05T10:20:22.573Z,17.48
2017-08-05T10:21:22.554Z,17.46
2017-08-05T10:22:22.559Z,17.48
2017-08-05T10:23:22.566Z,17.45
2017-08-05T10:24:22.498Z,17.39
2017-08-05T10:25:22.482Z,17.36
2017-08-05T10:26:22.464Z,17.29
2017-08-05T10:27:22.449Z,17.22
2017-08-05T10:28:22.425Z,17.11
2017-08-05T10:29:22.109Z,17.09
2017-08-05T10:30:22.388Z,17.01
2017-08-05T10:31:22.065Z,16.94
2017-08-05T10:32:22.341Z,17.01
2017-08-05T10:33:22.324Z,16.93
2017-08-05T10:34:22.006Z,17.01
2017-08-05T10:35:22.620Z,16.87
2017-08-05T10:36:21.673Z,16.81
2017-08-05T10:37:22.239Z,16.78
2017-08-05T10:38:22.222Z,16.71
2017-08-05T10:39:22.202Z,16.68
2017-08-05T10:40:22.182Z,16.66
2017-08-05T10:41:21.865Z,16.68
2017-08-05T10:42:22.141Z,16.61
2017-08-05T10:43:22.117Z,16.64
2017-08-05T10:44:22.105Z,16.64
2017-08-05T10:45:22.079Z,16.61
2017-08-05T10:46:22.060Z,16.66
2017-08-05T10:47:22.044Z,16.64
2017-08-05T10:48:22.071Z,16.66
2017-08-05T10:49:21.703Z,16.65
2017-08-05T10:50:21.983Z,16.72
2017-08-05T10:51:21.956Z,16.79
2017-08-05T10:52:21.941Z,16.71
2017-08-05T10:53:21.624Z,16.74
2017-08-05T10:54:21.893Z,16.75
2017-08-05T10:55:21.883Z,16.84
2017-08-05T10:56:21.859Z,16.81
2017-08-05T10:57:21.541Z,16.89
2017-08-05T10:58:21.523Z,16.9
2017-08-05T10:59:21.801Z,16.75
2017-08-05T11:00:21.778Z,16.83
2017-08-05T11:01:21.758Z,16.96
2017-08-05T11:02:21.441Z,16.93
2017-08-05T11:03:21.421Z,16.97
2017-08-05T11:04:21.694Z,16.93
2017-08-05T11:05:21.681Z,16.93
2017-08-05T11:06:21.660Z,16.94
2017-08-05T11:07:21.642Z,16.93
2017-08-05T11:08:21.621Z,16.93
2017-08-05T11:09:21.647Z,16.94
2017-08-05T11:10:21.577Z,16.9
2017-08-05T11:11:21.260Z,16.97
2017-08-05T11:12:21.861Z,16.93
2017-08-05T11:13:21.521Z,16.97
2017-08-05T11:14:21.499Z,17.01
2017-08-05T11:15:21.183Z,16.96
2017-08-05T11:16:21.460Z,16.99
2017-08-05T11:17:21.443Z,17.04
2017-08-05T11:18:21.128Z,17.05
2017-08-05T11:19:21.104Z,17.08
2017-08-05T11:20:21.385Z,17.15
2017-08-05T11:21:21.367Z,17.19
2017-08-05T11:22:21.346Z,17.24
2017-08-05T11:23:21.328Z,17.36
2017-08-05T11:24:21.306Z,17.45
2017-08-05T11:25:21.291Z,17.51
2017-08-05T11:26:21.271Z,17.6
2017-08-05T11:27:21.258Z,17.56
2017-08-05T11:28:21.241Z,17.56
2017-08-05T11:29:20.923Z,17.67
2017-08-05T11:30:21.202Z,17.74
2017-08-05T11:31:20.882Z,17.78
2017-08-05T11:32:21.161Z,17.87
2017-08-05T11:33:21.155Z,17.97
2017-08-05T11:34:21.123Z,17.95
2017-08-05T11:35:20.815Z,17.98
2017-08-05T11:36:21.090Z,17.95
2017-08-05T11:37:21.071Z,17.97
2017-08-05T11:38:21.061Z,17.94
2017-08-05T11:39:21.036Z,17.98
2017-08-05T11:40:21.021Z,17.97
2017-08-05T11:41:21.003Z,17.95
2017-08-05T11:42:20.987Z,18.11
2017-08-05T11:43:20.966Z,18.08
2017-08-05T11:44:20.960Z,18.15
2017-08-05T11:45:20.635Z,18.15
2017-08-05T11:46:20.915Z,18.16
2017-08-05T11:47:20.951Z,18.18
2017-08-05T11:48:20.877Z,18.16
2017-08-05T11:49:20.566Z,18.18
2017-08-05T11:50:20.840Z,18.11
2017-08-05T11:51:20.825Z,18.19
2017-08-05T11:52:20.809Z,18.19
2017-08-05T11:53:20.490Z,18.22
2017-08-05T11:54:20.476Z,18.34
2017-08-05T11:55:20.456Z,18.29
2017-08-05T11:56:20.737Z,18.28
2017-08-05T11:57:20.721Z,18.28
2017-08-05T11:58:20.703Z,18.28
2017-08-05T11:59:20.694Z,18.2
2017-08-05T12:00:20.672Z,18.26
2017-08-05T12:01:20.670Z,18.29
2017-08-05T12:02:20.633Z,18.31
2017-08-05T12:03:20.318Z,18.37
2017-08-05T12:04:20.596Z,18.38
2017-08-05T12:05:20.579Z,18.41
2017-08-05T12:06:20.564Z,18.35
2017-08-05T12:07:20.546Z,18.28
2017-08-05T12:08:20.531Z,18.2
2017-08-05T12:09:20.512Z,18.19
2017-08-05T12:10:20.489Z,18.18
2017-08-05T12:11:20.478Z,18.16
2017-08-05T12:12:20.457Z,18.11
2017-08-05T12:13:20.439Z,18.08
2017-08-05T12:14:20.424Z,18.05
2017-08-05T12:15:20.399Z,18.03
2017-08-05T12:16:20.386Z,17.94
2017-08-05T12:17:20.365Z,17.97
2017-08-05T12:18:20.347Z,17.97
2017-08-05T12:19:20.330Z,17.98
2017-08-05T12:20:20.368Z,17.98
2017-08-05T12:21:20.302Z,17.94
2017-08-05T12:22:19.982Z,17.78
2017-08-05T12:23:19.963Z,17.82
2017-08-05T12:24:20.240Z,17.78
2017-08-05T12:25:20.221Z,17.76
2017-08-05T12:26:20.215Z,17.65
2017-08-05T12:27:20.186Z,17.6
2017-08-05T12:28:19.875Z,17.54
2017-08-05T12:29:20.143Z,17.56
2017-08-05T12:30:20.140Z,17.56
2017-08-05T12:31:19.818Z,17.49
2017-08-05T12:32:20.087Z,17.36
2017-08-05T12:33:20.068Z,17.15
2017-08-05T12:34:20.053Z,17.01
2017-08-05T12:35:20.031Z,16.97
2017-08-05T12:36:20.016Z,16.97
2017-08-05T12:37:19.993Z,17.01
2017-08-05T12:38:19.975Z,16.94
2017-08-05T12:39:19.951Z,16.97
2017-08-05T12:40:19.932Z,16.9
2017-08-05T12:41:19.914Z,17.02
2017-08-05T12:42:19.899Z,17.05
2017-08-05T12:43:19.875Z,17.23
2017-08-05T12:44:19.856Z,17.27
2017-08-05T12:45:19.551Z,17.29
2017-08-05T12:46:19.534Z,17.52
2017-08-05T12:47:19.506Z,17.7
2017-08-05T12:48:19.484Z,17.83
2017-08-05T12:49:19.766Z,18.04
2017-08-05T12:50:19.750Z,18.28
2017-08-05T12:51:19.487Z,18.4
2017-08-05T12:52:19.418Z,18.5
2017-08-05T12:53:19.410Z,18.59
2017-08-05T12:54:19.385Z,18.65
2017-08-05T12:55:19.371Z,18.78